sensor_id;sensor_type;location;lat;lon;timestamp;P1;durP1;ratioP1;P2;durP2;ratioP2
813;SDS011;389;48.710;9.392;2022-09-20T00:01:20;14.50;;;7.30;;
813;SDS011;389;48.710;9.392;2022-09-20T00:03:48;28.80;;;11.77;;
813;SDS011;389;48.710;9.392;2022-09-20T00:06:17;17.23;;;8.37;;
813;SDS011;389;48.710;9.392;2022-09-20T00:08:45;12.17;;;6.57;;
813;SDS011;389;48.710;9.392;2022-09-20T00:11:12;9.17;;;6.00;;
813;SDS011;389;48.710;9.392;2022-09-20T00:13:49;9.67;;;6.07;;
813;SDS011;389;48.710;9.392;2022-09-20T00:16:18;9.90;;;4.60;;
813;SDS011;389;48.710;9.392;2022-09-20T00:18:50;8.90;;;5.33;;
813;SDS011;389;48.710;9.392;2022-09-20T00:21:17;8.03;;;5.57;;
813;SDS011;389;48.710;9.392;2022-09-20T00:23:45;7.80;;;5.10;;
813;SDS011;389;48.710;9.392;2022-09-20T00:26:11;15.50;;;4.73;;
813;SDS011;389;48.710;9.392;2022-09-20T00:28:37;6.83;;;4.70;;
813;SDS011;389;48.710;9.392;2022-09-20T00:31:03;6.90;;;4.80;;
813;SDS011;389;48.710;9.392;2022-09-20T00:33:29;9.43;;;5.67;;
813;SDS011;389;48.710;9.392;2022-09-20T00:36:13;6.27;;;4.43;;
813;SDS011;389;48.710;9.392;2022-09-20T00:38:40;6.70;;;4.67;;
813;SDS011;389;48.710;9.392;2022-09-20T00:41:06;5.80;;;4.73;;
813;SDS011;389;48.710;9.392;2022-09-20T00:43:50;9.17;;;5.40;;
813;SDS011;389;48.710;9.392;2022-09-20T00:49:10;6.67;;;5.10;;
813;SDS011;389;48.710;9.392;2022-09-20T00:51:42;9.33;;;5.07;;
813;SDS011;389;48.710;9.392;2022-09-20T00:54:11;8.17;;;4.10;;
813;SDS011;389;48.710;9.392;2022-09-20T00:56:41;5.43;;;3.80;;
813;SDS011;389;48.710;9.392;2022-09-20T01:01:43;5.90;;;4.47;;
813;SDS011;389;48.710;9.392;2022-09-20T01:04:13;7.07;;;4.20;;
813;SDS011;389;48.710;9.392;2022-09-20T01:06:41;4.53;;;3.80;;
813;SDS011;389;48.710;9.392;2022-09-20T01:09:10;6.70;;;3.57;;
813;SDS011;389;48.710;9.392;2022-09-20T01:11:35;5.30;;;3.63;;
813;SDS011;389;48.710;9.392;2022-09-20T01:14:02;6.17;;;4.13;;
813;SDS011;389;48.710;9.392;2022-09-20T01:16:28;6.23;;;3.87;;
813;SDS011;389;48.710;9.392;2022-09-20T01:18:56;5.93;;;4.63;;
813;SDS011;389;48.710;9.392;2022-09-20T01:21:25;5.03;;;3.40;;
813;SDS011;389;48.710;9.392;2022-09-20T01:24:04;6.00;;;3.90;;
813;SDS011;389;48.710;9.392;2022-09-20T01:32:02;4.97;;;3.50;;
813;SDS011;389;48.710;9.392;2022-09-20T01:34:40;5.40;;;3.80;;
813;SDS011;389;48.710;9.392;2022-09-20T01:40:04;6.73;;;4.23;;
813;SDS011;389;48.710;9.392;2022-09-20T01:43:08;5.27;;;3.27;;
813;SDS011;389;48.710;9.392;2022-09-20T01:45:51;7.07;;;4.30;;
813;SDS011;389;48.710;9.392;2022-09-20T01:57:04;5.50;;;3.97;;
813;SDS011;389;48.710;9.392;2022-09-20T02:02:49;7.07;;;3.47;;
813;SDS011;389;48.710;9.392;2022-09-20T02:05:42;5.80;;;3.80;;
813;SDS011;389;48.710;9.392;2022-09-20T02:17:02;6.87;;;4.03;;
813;SDS011;389;48.710;9.392;2022-09-20T02:19:40;6.00;;;4.10;;
813;SDS011;389;48.710;9.392;2022-09-20T02:38:41;4.80;;;3.47;;
813;SDS011;389;48.710;9.392;2022-09-20T02:55:01;3.43;;;2.97;;
813;SDS011;389;48.710;9.392;2022-09-20T02:57:44;4.00;;;3.43;;
813;SDS011;389;48.710;9.392;2022-09-20T03:00:29;8.50;;;3.00;;
813;SDS011;389;48.710;9.392;2022-09-20T03:03:20;5.80;;;3.70;;
813;SDS011;389;48.710;9.392;2022-09-20T03:06:03;6.13;;;3.23;;
813;SDS011;389;48.710;9.392;2022-09-20T03:08:48;4.27;;;3.30;;
813;SDS011;389;48.710;9.392;2022-09-20T03:11:17;6.30;;;3.80;;
813;SDS011;389;48.710;9.392;2022-09-20T03:14:00;5.53;;;3.30;;
813;SDS011;389;48.710;9.392;2022-09-20T03:16:31;4.80;;;3.10;;
813;SDS011;389;48.710;9.392;2022-09-20T03:27:57;5.50;;;3.03;;
813;SDS011;389;48.710;9.392;2022-09-20T03:30:50;6.03;;;3.07;;
813;SDS011;389;48.710;9.392;2022-09-20T03:36:05;3.63;;;3.07;;
813;SDS011;389;48.710;9.392;2022-09-20T03:39:01;3.20;;;2.90;;
813;SDS011;389;48.710;9.392;2022-09-20T03:41:40;4.33;;;3.30;;
813;SDS011;389;48.710;9.392;2022-09-20T03:58:57;3.13;;;2.53;;
813;SDS011;389;48.710;9.392;2022-09-20T04:01:31;3.73;;;2.70;;
813;SDS011;389;48.710;9.392;2022-09-20T04:04:15;5.20;;;3.20;;
813;SDS011;389;48.710;9.392;2022-09-20T04:06:59;4.10;;;2.87;;
813;SDS011;389;48.710;9.392;2022-09-20T04:22:48;4.33;;;3.30;;
813;SDS011;389;48.710;9.392;2022-09-20T04:25:18;6.60;;;3.20;;
813;SDS011;389;48.710;9.392;2022-09-20T04:27:53;3.87;;;2.93;;
813;SDS011;389;48.710;9.392;2022-09-20T04:30:30;3.73;;;3.07;;
813;SDS011;389;48.710;9.392;2022-09-20T04:33:06;4.00;;;3.60;;
813;SDS011;389;48.710;9.392;2022-09-20T04:38:29;9.03;;;3.20;;
813;SDS011;389;48.710;9.392;2022-09-20T04:46:45;5.57;;;3.80;;
813;SDS011;389;48.710;9.392;2022-09-20T04:52:24;7.30;;;4.30;;
813;SDS011;389;48.710;9.392;2022-09-20T05:00:41;3.83;;;2.30;;
813;SDS011;389;48.710;9.392;2022-09-20T05:14:42;4.97;;;2.90;;
813;SDS011;389;48.710;9.392;2022-09-20T05:23:30;5.27;;;3.23;;
813;SDS011;389;48.710;9.392;2022-09-20T05:29:06;9.77;;;2.67;;
813;SDS011;389;48.710;9.392;2022-09-20T05:43:17;3.67;;;2.90;;
813;SDS011;389;48.710;9.392;2022-09-20T05:46:09;3.27;;;2.67;;
813;SDS011;389;48.710;9.392;2022-09-20T05:54:26;4.60;;;2.80;;
813;SDS011;389;48.710;9.392;2022-09-20T06:00:18;10.20;;;6.10;;
813;SDS011;389;48.710;9.392;2022-09-20T06:05:48;6.77;;;3.47;;
813;SDS011;389;48.710;9.392;2022-09-20T06:08:44;6.90;;;4.33;;
813;SDS011;389;48.710;9.392;2022-09-20T06:16:50;2.90;;;2.70;;
813;SDS011;389;48.710;9.392;2022-09-20T06:25:02;4.07;;;3.70;;
813;SDS011;389;48.710;9.392;2022-09-20T06:28:05;5.70;;;3.10;;
813;SDS011;389;48.710;9.392;2022-09-20T06:30:39;5.00;;;3.63;;
813;SDS011;389;48.710;9.392;2022-09-20T06:36:23;4.53;;;3.33;;
813;SDS011;389;48.710;9.392;2022-09-20T06:41:29;5.00;;;3.10;;
813;SDS011;389;48.710;9.392;2022-09-20T06:43:59;8.07;;;5.40;;
813;SDS011;389;48.710;9.392;2022-09-20T06:46:26;5.50;;;3.80;;
813;SDS011;389;48.710;9.392;2022-09-20T06:48:53;3.10;;;2.70;;
813;SDS011;389;48.710;9.392;2022-09-20T06:51:20;4.33;;;2.93;;
813;SDS011;389;48.710;9.392;2022-09-20T06:53:46;5.53;;;3.10;;
813;SDS011;389;48.710;9.392;2022-09-20T06:56:16;6.87;;;2.93;;
813;SDS011;389;48.710;9.392;2022-09-20T06:58:44;7.10;;;3.53;;
813;SDS011;389;48.710;9.392;2022-09-20T07:01:10;7.80;;;3.80;;
813;SDS011;389;48.710;9.392;2022-09-20T07:03:37;7.27;;;3.70;;
813;SDS011;389;48.710;9.392;2022-09-20T07:06:03;4.90;;;3.30;;
813;SDS011;389;48.710;9.392;2022-09-20T07:08:30;3.13;;;2.83;;
813;SDS011;389;48.710;9.392;2022-09-20T07:10:56;6.13;;;4.03;;
813;SDS011;389;48.710;9.392;2022-09-20T07:13:26;6.40;;;3.50;;
813;SDS011;389;48.710;9.392;2022-09-20T07:15:58;6.23;;;3.80;;
813;SDS011;389;48.710;9.392;2022-09-20T07:18:27;6.20;;;3.63;;
813;SDS011;389;48.710;9.392;2022-09-20T07:20:53;5.43;;;3.50;;
813;SDS011;389;48.710;9.392;2022-09-20T07:23:22;4.23;;;3.20;;
813;SDS011;389;48.710;9.392;2022-09-20T07:25:51;4.00;;;3.57;;
813;SDS011;389;48.710;9.392;2022-09-20T07:28:17;6.63;;;3.60;;
813;SDS011;389;48.710;9.392;2022-09-20T07:30:46;6.50;;;3.70;;
813;SDS011;389;48.710;9.392;2022-09-20T07:33:12;4.43;;;3.53;;
813;SDS011;389;48.710;9.392;2022-09-20T07:35:43;4.47;;;3.43;;
813;SDS011;389;48.710;9.392;2022-09-20T07:38:10;6.80;;;4.83;;
813;SDS011;389;48.710;9.392;2022-09-20T07:40:36;6.80;;;4.10;;
813;SDS011;389;48.710;9.392;2022-09-20T07:43:02;5.73;;;3.80;;
813;SDS011;389;48.710;9.392;2022-09-20T07:45:28;3.57;;;3.20;;
813;SDS011;389;48.710;9.392;2022-09-20T07:47:56;6.70;;;3.50;;
813;SDS011;389;48.710;9.392;2022-09-20T07:50:23;5.50;;;3.97;;
813;SDS011;389;48.710;9.392;2022-09-20T07:52:49;4.33;;;3.53;;
813;SDS011;389;48.710;9.392;2022-09-20T07:55:14;4.27;;;3.40;;
813;SDS011;389;48.710;9.392;2022-09-20T07:57:40;5.13;;;3.30;;
813;SDS011;389;48.710;9.392;2022-09-20T08:00:07;6.33;;;4.07;;
813;SDS011;389;48.710;9.392;2022-09-20T08:02:33;5.87;;;4.07;;
813;SDS011;389;48.710;9.392;2022-09-20T08:04:59;5.50;;;3.30;;
813;SDS011;389;48.710;9.392;2022-09-20T08:07:25;5.90;;;4.37;;
813;SDS011;389;48.710;9.392;2022-09-20T08:09:51;4.97;;;3.53;;
813;SDS011;389;48.710;9.392;2022-09-20T08:12:16;7.47;;;4.03;;
813;SDS011;389;48.710;9.392;2022-09-20T08:14:43;7.47;;;3.80;;
813;SDS011;389;48.710;9.392;2022-09-20T08:17:09;5.57;;;4.30;;
813;SDS011;389;48.710;9.392;2022-09-20T08:19:35;5.10;;;4.40;;
813;SDS011;389;48.710;9.392;2022-09-20T08:22:04;5.70;;;3.60;;
813;SDS011;389;48.710;9.392;2022-09-20T08:24:30;5.17;;;4.03;;
813;SDS011;389;48.710;9.392;2022-09-20T08:26:57;5.23;;;3.50;;
813;SDS011;389;48.710;9.392;2022-09-20T08:29:23;6.30;;;3.50;;
813;SDS011;389;48.710;9.392;2022-09-20T08:31:49;5.07;;;4.03;;
813;SDS011;389;48.710;9.392;2022-09-20T08:34:16;5.23;;;4.30;;
813;SDS011;389;48.710;9.392;2022-09-20T08:36:42;5.23;;;3.37;;
813;SDS011;389;48.710;9.392;2022-09-20T08:39:11;4.13;;;3.33;;
813;SDS011;389;48.710;9.392;2022-09-20T08:41:56;4.20;;;3.10;;
813;SDS011;389;48.710;9.392;2022-09-20T08:44:34;4.23;;;3.40;;
813;SDS011;389;48.710;9.392;2022-09-20T08:49:39;5.03;;;3.80;;
813;SDS011;389;48.710;9.392;2022-09-20T08:52:05;5.40;;;3.67;;
813;SDS011;389;48.710;9.392;2022-09-20T08:54:31;4.70;;;3.20;;
813;SDS011;389;48.710;9.392;2022-09-20T08:57:03;5.93;;;2.90;;
813;SDS011;389;48.710;9.392;2022-09-20T08:59:36;4.10;;;2.67;;
813;SDS011;389;48.710;9.392;2022-09-20T09:02:02;6.60;;;2.27;;
813;SDS011;389;48.710;9.392;2022-09-20T09:04:33;3.00;;;1.90;;
813;SDS011;389;48.710;9.392;2022-09-20T09:07:00;3.17;;;1.73;;
813;SDS011;389;48.710;9.392;2022-09-20T09:09:26;4.33;;;2.10;;
813;SDS011;389;48.710;9.392;2022-09-20T09:11:53;2.80;;;1.73;;
813;SDS011;389;48.710;9.392;2022-09-20T09:14:23;2.50;;;1.80;;
813;SDS011;389;48.710;9.392;2022-09-20T09:17:14;3.57;;;2.20;;
813;SDS011;389;48.710;9.392;2022-09-20T09:19:42;5.03;;;1.70;;
813;SDS011;389;48.710;9.392;2022-09-20T09:22:09;1.80;;;1.60;;
813;SDS011;389;48.710;9.392;2022-09-20T09:24:41;2.27;;;1.43;;
813;SDS011;389;48.710;9.392;2022-09-20T09:27:11;1.93;;;1.40;;
813;SDS011;389;48.710;9.392;2022-09-20T09:29:47;3.77;;;1.50;;
813;SDS011;389;48.710;9.392;2022-09-20T09:32:19;1.83;;;1.20;;
813;SDS011;389;48.710;9.392;2022-09-20T09:35:19;3.10;;;1.60;;
813;SDS011;389;48.710;9.392;2022-09-20T09:37:56;2.27;;;1.20;;
813;SDS011;389;48.710;9.392;2022-09-20T09:40:23;2.70;;;1.30;;
813;SDS011;389;48.710;9.392;2022-09-20T09:42:57;1.37;;;1.27;;
813;SDS011;389;48.710;9.392;2022-09-20T09:45:29;3.03;;;1.70;;
813;SDS011;389;48.710;9.392;2022-09-20T09:48:17;1.90;;;1.50;;
813;SDS011;389;48.710;9.392;2022-09-20T09:50:46;3.27;;;1.53;;
813;SDS011;389;48.710;9.392;2022-09-20T09:53:13;5.47;;;1.57;;
813;SDS011;389;48.710;9.392;2022-09-20T09:58:28;2.30;;;1.37;;
813;SDS011;389;48.710;9.392;2022-09-20T10:01:10;3.33;;;1.10;;
813;SDS011;389;48.710;9.392;2022-09-20T10:03:53;1.67;;;1.50;;
813;SDS011;389;48.710;9.392;2022-09-20T10:06:39;2.10;;;1.40;;
813;SDS011;389;48.710;9.392;2022-09-20T10:09:17;1.20;;;1.10;;
813;SDS011;389;48.710;9.392;2022-09-20T10:14:36;1.70;;;1.27;;
813;SDS011;389;48.710;9.392;2022-09-20T10:17:24;2.70;;;1.33;;
813;SDS011;389;48.710;9.392;2022-09-20T10:23:01;2.00;;;1.43;;
813;SDS011;389;48.710;9.392;2022-09-20T10:28:53;4.80;;;1.27;;
813;SDS011;389;48.710;9.392;2022-09-20T10:31:39;2.83;;;1.40;;
813;SDS011;389;48.710;9.392;2022-09-20T10:37:20;3.20;;;1.37;;
813;SDS011;389;48.710;9.392;2022-09-20T10:40:06;1.63;;;1.20;;
813;SDS011;389;48.710;9.392;2022-09-20T10:43:16;0.87;;;0.87;;
813;SDS011;389;48.710;9.392;2022-09-20T10:48:46;3.77;;;0.90;;
813;SDS011;389;48.710;9.392;2022-09-20T10:56:41;1.53;;;1.10;;
813;SDS011;389;48.710;9.392;2022-09-20T10:59:47;4.83;;;1.20;;
813;SDS011;389;48.710;9.392;2022-09-20T11:08:14;2.77;;;1.00;;
813;SDS011;389;48.710;9.392;2022-09-20T11:13:24;2.20;;;1.30;;
813;SDS011;389;48.710;9.392;2022-09-20T11:16:01;2.53;;;1.20;;
813;SDS011;389;48.710;9.392;2022-09-20T11:18:39;4.00;;;1.40;;
813;SDS011;389;48.710;9.392;2022-09-20T11:21:07;3.40;;;1.03;;
813;SDS011;389;48.710;9.392;2022-09-20T11:23:50;1.17;;;0.80;;
813;SDS011;389;48.710;9.392;2022-09-20T11:26:33;1.10;;;0.90;;
813;SDS011;389;48.710;9.392;2022-09-20T11:29:07;1.90;;;1.00;;
813;SDS011;389;48.710;9.392;2022-09-20T11:31:43;4.20;;;0.93;;
813;SDS011;389;48.710;9.392;2022-09-20T11:34:18;1.53;;;1.00;;
813;SDS011;389;48.710;9.392;2022-09-20T11:36:54;3.57;;;1.30;;
813;SDS011;389;48.710;9.392;2022-09-20T11:42:00;1.63;;;0.90;;
813;SDS011;389;48.710;9.392;2022-09-20T11:44:27;3.70;;;1.20;;
813;SDS011;389;48.710;9.392;2022-09-20T11:47:04;4.13;;;1.40;;
813;SDS011;389;48.710;9.392;2022-09-20T11:55:07;1.80;;;1.13;;
813;SDS011;389;48.710;9.392;2022-09-20T11:58:04;1.77;;;1.00;;
813;SDS011;389;48.710;9.392;2022-09-20T12:00:33;3.50;;;1.20;;
813;SDS011;389;48.710;9.392;2022-09-20T12:03:02;3.00;;;1.40;;
813;SDS011;389;48.710;9.392;2022-09-20T12:05:38;3.33;;;1.13;;
813;SDS011;389;48.710;9.392;2022-09-20T12:08:17;0.97;;;0.90;;
813;SDS011;389;48.710;9.392;2022-09-20T12:10:59;2.33;;;1.37;;
813;SDS011;389;48.710;9.392;2022-09-20T12:13:35;1.60;;;1.33;;
813;SDS011;389;48.710;9.392;2022-09-20T12:16:05;1.37;;;1.00;;
813;SDS011;389;48.710;9.392;2022-09-20T12:26:06;1.87;;;0.80;;
813;SDS011;389;48.710;9.392;2022-09-20T12:28:41;1.60;;;0.83;;
813;SDS011;389;48.710;9.392;2022-09-20T12:36:30;3.13;;;1.60;;
813;SDS011;389;48.710;9.392;2022-09-20T12:41:56;4.10;;;1.60;;
813;SDS011;389;48.710;9.392;2022-09-20T12:44:34;1.90;;;1.50;;
813;SDS011;389;48.710;9.392;2022-09-20T13:05:48;2.00;;;1.07;;
813;SDS011;389;48.710;9.392;2022-09-20T13:14:11;2.40;;;1.10;;
813;SDS011;389;48.710;9.392;2022-09-20T13:19:34;2.40;;;1.20;;
813;SDS011;389;48.710;9.392;2022-09-20T13:24:58;1.30;;;1.13;;
813;SDS011;389;48.710;9.392;2022-09-20T13:33:12;2.50;;;1.10;;
813;SDS011;389;48.710;9.392;2022-09-20T13:35:40;2.37;;;1.40;;
813;SDS011;389;48.710;9.392;2022-09-20T13:38:10;3.10;;;1.60;;
813;SDS011;389;48.710;9.392;2022-09-20T13:40:40;1.73;;;1.37;;
813;SDS011;389;48.710;9.392;2022-09-20T13:45:59;3.10;;;1.50;;
813;SDS011;389;48.710;9.392;2022-09-20T13:48:31;3.90;;;1.60;;
813;SDS011;389;48.710;9.392;2022-09-20T13:50:56;1.80;;;1.40;;
813;SDS011;389;48.710;9.392;2022-09-20T13:53:23;1.40;;;1.30;;
813;SDS011;389;48.710;9.392;2022-09-20T13:55:50;2.40;;;1.30;;
813;SDS011;389;48.710;9.392;2022-09-20T13:58:31;4.00;;;1.87;;
813;SDS011;389;48.710;9.392;2022-09-20T14:01:02;2.10;;;1.50;;
813;SDS011;389;48.710;9.392;2022-09-20T14:03:31;2.00;;;1.30;;
813;SDS011;389;48.710;9.392;2022-09-20T14:05:59;2.47;;;1.20;;
813;SDS011;389;48.710;9.392;2022-09-20T14:08:35;1.40;;;1.30;;
813;SDS011;389;48.710;9.392;2022-09-20T14:11:05;2.53;;;1.30;;
813;SDS011;389;48.710;9.392;2022-09-20T14:13:37;1.67;;;1.37;;
813;SDS011;389;48.710;9.392;2022-09-20T14:16:06;3.43;;;1.37;;
813;SDS011;389;48.710;9.392;2022-09-20T14:18:33;2.10;;;1.60;;
813;SDS011;389;48.710;9.392;2022-09-20T14:21:01;2.40;;;1.07;;
813;SDS011;389;48.710;9.392;2022-09-20T14:23:28;3.63;;;1.50;;
813;SDS011;389;48.710;9.392;2022-09-20T14:28:51;2.73;;;1.87;;
813;SDS011;389;48.710;9.392;2022-09-20T14:33:53;2.20;;;1.47;;
813;SDS011;389;48.710;9.392;2022-09-20T14:36:25;5.40;;;2.30;;
813;SDS011;389;48.710;9.392;2022-09-20T14:38:54;2.20;;;1.67;;
813;SDS011;389;48.710;9.392;2022-09-20T14:41:23;3.03;;;1.43;;
813;SDS011;389;48.710;9.392;2022-09-20T14:44:00;2.20;;;1.57;;
813;SDS011;389;48.710;9.392;2022-09-20T14:46:36;2.63;;;1.60;;
813;SDS011;389;48.710;9.392;2022-09-20T14:49:29;4.20;;;1.63;;
813;SDS011;389;48.710;9.392;2022-09-20T14:57:52;2.43;;;1.63;;
813;SDS011;389;48.710;9.392;2022-09-20T15:00:22;2.30;;;1.60;;
813;SDS011;389;48.710;9.392;2022-09-20T15:02:48;1.40;;;1.30;;
813;SDS011;389;48.710;9.392;2022-09-20T15:05:22;3.90;;;1.50;;
813;SDS011;389;48.710;9.392;2022-09-20T15:07:50;2.00;;;1.40;;
813;SDS011;389;48.710;9.392;2022-09-20T15:10:17;2.43;;;2.00;;
813;SDS011;389;48.710;9.392;2022-09-20T15:12:43;4.43;;;1.60;;
813;SDS011;389;48.710;9.392;2022-09-20T15:15:12;4.90;;;2.20;;
813;SDS011;389;48.710;9.392;2022-09-20T15:17:42;2.40;;;1.97;;
813;SDS011;389;48.710;9.392;2022-09-20T15:20:19;6.40;;;2.80;;
813;SDS011;389;48.710;9.392;2022-09-20T15:22:48;7.17;;;3.37;;
813;SDS011;389;48.710;9.392;2022-09-20T15:25:15;2.93;;;2.13;;
813;SDS011;389;48.710;9.392;2022-09-20T15:27:43;8.03;;;2.93;;
813;SDS011;389;48.710;9.392;2022-09-20T15:30:15;6.30;;;2.90;;
813;SDS011;389;48.710;9.392;2022-09-20T15:32:45;2.60;;;2.10;;
813;SDS011;389;48.710;9.392;2022-09-20T15:35:11;4.60;;;1.90;;
813;SDS011;389;48.710;9.392;2022-09-20T15:37:38;3.13;;;1.90;;
813;SDS011;389;48.710;9.392;2022-09-20T15:40:04;2.67;;;2.00;;
813;SDS011;389;48.710;9.392;2022-09-20T15:42:32;2.13;;;1.90;;
813;SDS011;389;48.710;9.392;2022-09-20T15:45:01;2.47;;;1.90;;
813;SDS011;389;48.710;9.392;2022-09-20T15:47:31;2.00;;;1.73;;
813;SDS011;389;48.710;9.392;2022-09-20T15:49:56;3.97;;;1.97;;
813;SDS011;389;48.710;9.392;2022-09-20T15:52:23;2.50;;;2.13;;
813;SDS011;389;48.710;9.392;2022-09-20T15:54:49;4.00;;;2.00;;
813;SDS011;389;48.710;9.392;2022-09-20T15:57:15;2.20;;;1.40;;
813;SDS011;389;48.710;9.392;2022-09-20T15:59:41;5.30;;;2.17;;
813;SDS011;389;48.710;9.392;2022-09-20T16:02:07;2.30;;;2.10;;
813;SDS011;389;48.710;9.392;2022-09-20T16:04:33;2.13;;;1.50;;
813;SDS011;389;48.710;9.392;2022-09-20T16:07:00;3.37;;;2.07;;
813;SDS011;389;48.710;9.392;2022-09-20T16:09:26;2.13;;;1.90;;
813;SDS011;389;48.710;9.392;2022-09-20T16:11:52;3.20;;;2.10;;
813;SDS011;389;48.710;9.392;2022-09-20T16:14:22;2.10;;;2.00;;
813;SDS011;389;48.710;9.392;2022-09-20T16:16:48;4.33;;;2.83;;
813;SDS011;389;48.710;9.392;2022-09-20T16:19:14;3.67;;;1.63;;
813;SDS011;389;48.710;9.392;2022-09-20T16:21:52;1.93;;;1.77;;
813;SDS011;389;48.710;9.392;2022-09-20T16:24:26;3.70;;;1.70;;
813;SDS011;389;48.710;9.392;2022-09-20T16:26:56;1.70;;;1.57;;
813;SDS011;389;48.710;9.392;2022-09-20T16:29:22;2.43;;;1.50;;
813;SDS011;389;48.710;9.392;2022-09-20T16:31:49;3.73;;;1.73;;
813;SDS011;389;48.710;9.392;2022-09-20T16:34:24;2.03;;;1.40;;
813;SDS011;389;48.710;9.392;2022-09-20T16:36:55;2.10;;;1.60;;
813;SDS011;389;48.710;9.392;2022-09-20T16:39:23;3.43;;;1.60;;
813;SDS011;389;48.710;9.392;2022-09-20T16:41:51;1.77;;;1.50;;
813;SDS011;389;48.710;9.392;2022-09-20T16:44:18;4.53;;;1.70;;
813;SDS011;389;48.710;9.392;2022-09-20T16:46:44;1.60;;;1.50;;
813;SDS011;389;48.710;9.392;2022-09-20T16:49:10;2.17;;;1.80;;
813;SDS011;389;48.710;9.392;2022-09-20T16:51:38;2.90;;;1.20;;
813;SDS011;389;48.710;9.392;2022-09-20T16:54:05;1.10;;;1.10;;
813;SDS011;389;48.710;9.392;2022-09-20T16:56:35;1.37;;;1.27;;
813;SDS011;389;48.710;9.392;2022-09-20T16:59:02;2.20;;;1.80;;
813;SDS011;389;48.710;9.392;2022-09-20T17:01:29;1.83;;;1.63;;
813;SDS011;389;48.710;9.392;2022-09-20T17:03:56;2.33;;;1.80;;
813;SDS011;389;48.710;9.392;2022-09-20T17:06:22;1.50;;;1.40;;
813;SDS011;389;48.710;9.392;2022-09-20T17:08:52;3.27;;;2.20;;
813;SDS011;389;48.710;9.392;2022-09-20T17:11:20;2.97;;;1.70;;
813;SDS011;389;48.710;9.392;2022-09-20T17:13:48;4.10;;;1.97;;
813;SDS011;389;48.710;9.392;2022-09-20T17:18:45;2.43;;;2.07;;
813;SDS011;389;48.710;9.392;2022-09-20T17:21:17;4.70;;;2.30;;
813;SDS011;389;48.710;9.392;2022-09-20T17:23:44;6.33;;;3.13;;
813;SDS011;389;48.710;9.392;2022-09-20T17:26:12;2.80;;;2.60;;
813;SDS011;389;48.710;9.392;2022-09-20T17:28:39;4.53;;;3.03;;
813;SDS011;389;48.710;9.392;2022-09-20T17:31:10;4.43;;;3.10;;
813;SDS011;389;48.710;9.392;2022-09-20T17:33:38;3.97;;;3.50;;
813;SDS011;389;48.710;9.392;2022-09-20T17:36:04;6.10;;;4.80;;
813;SDS011;389;48.710;9.392;2022-09-20T17:38:31;6.27;;;4.73;;
813;SDS011;389;48.710;9.392;2022-09-20T17:41:08;8.57;;;6.70;;
813;SDS011;389;48.710;9.392;2022-09-20T17:43:39;4.73;;;4.10;;
813;SDS011;389;48.710;9.392;2022-09-20T17:46:13;4.13;;;3.73;;
813;SDS011;389;48.710;9.392;2022-09-20T17:48:41;6.10;;;4.63;;
813;SDS011;389;48.710;9.392;2022-09-20T17:51:12;6.43;;;5.40;;
813;SDS011;389;48.710;9.392;2022-09-20T17:53:40;6.17;;;3.97;;
813;SDS011;389;48.710;9.392;2022-09-20T17:56:06;16.27;;;10.67;;
813;SDS011;389;48.710;9.392;2022-09-20T17:58:35;14.10;;;9.50;;
813;SDS011;389;48.710;9.392;2022-09-20T18:01:11;8.23;;;5.33;;
813;SDS011;389;48.710;9.392;2022-09-20T18:03:40;14.10;;;9.20;;
813;SDS011;389;48.710;9.392;2022-09-20T18:06:11;12.37;;;7.97;;
813;SDS011;389;48.710;9.392;2022-09-20T18:08:45;15.70;;;9.70;;
813;SDS011;389;48.710;9.392;2022-09-20T18:11:13;11.07;;;8.47;;
813;SDS011;389;48.710;9.392;2022-09-20T18:13:39;7.53;;;4.70;;
813;SDS011;389;48.710;9.392;2022-09-20T18:16:11;4.90;;;4.40;;
813;SDS011;389;48.710;9.392;2022-09-20T18:18:39;7.30;;;5.50;;
813;SDS011;389;48.710;9.392;2022-09-20T18:21:13;10.70;;;6.97;;
813;SDS011;389;48.710;9.392;2022-09-20T18:23:39;11.23;;;7.90;;
813;SDS011;389;48.710;9.392;2022-09-20T18:26:10;8.67;;;6.67;;
813;SDS011;389;48.710;9.392;2022-09-20T18:28:49;8.37;;;5.97;;
813;SDS011;389;48.710;9.392;2022-09-20T18:31:21;6.57;;;5.30;;
813;SDS011;389;48.710;9.392;2022-09-20T18:33:55;6.80;;;5.63;;
813;SDS011;389;48.710;9.392;2022-09-20T18:36:21;6.70;;;6.10;;
813;SDS011;389;48.710;9.392;2022-09-20T18:38:51;10.00;;;5.97;;
813;SDS011;389;48.710;9.392;2022-09-20T18:41:19;6.63;;;5.87;;
813;SDS011;389;48.710;9.392;2022-09-20T18:43:45;5.20;;;4.30;;
813;SDS011;389;48.710;9.392;2022-09-20T18:46:11;7.10;;;5.10;;
813;SDS011;389;48.710;9.392;2022-09-20T18:48:37;6.40;;;5.40;;
813;SDS011;389;48.710;9.392;2022-09-20T18:51:04;7.97;;;6.33;;
813;SDS011;389;48.710;9.392;2022-09-20T18:53:32;8.73;;;6.00;;
813;SDS011;389;48.710;9.392;2022-09-20T18:56:04;9.10;;;6.00;;
813;SDS011;389;48.710;9.392;2022-09-20T18:58:40;14.50;;;5.27;;
813;SDS011;389;48.710;9.392;2022-09-20T19:01:16;5.67;;;4.93;;
813;SDS011;389;48.710;9.392;2022-09-20T19:09:56;7.10;;;4.70;;
813;SDS011;389;48.710;9.392;2022-09-20T19:12:31;9.93;;;5.30;;
813;SDS011;389;48.710;9.392;2022-09-20T19:17:55;17.70;;;12.23;;
813;SDS011;389;48.710;9.392;2022-09-20T19:20:55;16.17;;;10.33;;
813;SDS011;389;48.710;9.392;2022-09-20T19:28:54;8.63;;;5.80;;
813;SDS011;389;48.710;9.392;2022-09-20T19:31:25;8.20;;;6.37;;
813;SDS011;389;48.710;9.392;2022-09-20T19:33:53;12.00;;;7.53;;
813;SDS011;389;48.710;9.392;2022-09-20T19:36:20;10.97;;;7.30;;
813;SDS011;389;48.710;9.392;2022-09-20T19:38:51;9.20;;;6.40;;
813;SDS011;389;48.710;9.392;2022-09-20T19:41:57;14.00;;;6.00;;
813;SDS011;389;48.710;9.392;2022-09-20T19:47:28;13.97;;;8.57;;
813;SDS011;389;48.710;9.392;2022-09-20T19:52:52;10.27;;;6.70;;
813;SDS011;389;48.710;9.392;2022-09-20T19:55:21;7.90;;;5.47;;
813;SDS011;389;48.710;9.392;2022-09-20T19:57:47;8.10;;;5.30;;
813;SDS011;389;48.710;9.392;2022-09-20T20:00:14;7.13;;;4.53;;
813;SDS011;389;48.710;9.392;2022-09-20T20:02:41;5.27;;;4.23;;
813;SDS011;389;48.710;9.392;2022-09-20T20:05:21;8.63;;;5.37;;
813;SDS011;389;48.710;9.392;2022-09-20T20:08:07;7.70;;;4.93;;
813;SDS011;389;48.710;9.392;2022-09-20T20:28:11;5.83;;;4.07;;
813;SDS011;389;48.710;9.392;2022-09-20T20:30:38;9.47;;;4.63;;
813;SDS011;389;48.710;9.392;2022-09-20T20:33:04;6.90;;;4.80;;
813;SDS011;389;48.710;9.392;2022-09-20T20:35:30;9.50;;;4.93;;
813;SDS011;389;48.710;9.392;2022-09-20T20:37:56;9.03;;;4.87;;
813;SDS011;389;48.710;9.392;2022-09-20T20:40:21;5.80;;;4.03;;
813;SDS011;389;48.710;9.392;2022-09-20T20:42:47;8.27;;;4.97;;
813;SDS011;389;48.710;9.392;2022-09-20T20:45:13;11.87;;;5.90;;
813;SDS011;389;48.710;9.392;2022-09-20T20:47:39;11.63;;;6.70;;
813;SDS011;389;48.710;9.392;2022-09-20T20:50:08;10.73;;;6.20;;
813;SDS011;389;48.710;9.392;2022-09-20T20:52:36;10.87;;;6.70;;
813;SDS011;389;48.710;9.392;2022-09-20T20:55:02;8.20;;;5.70;;
813;SDS011;389;48.710;9.392;2022-09-20T20:57:28;8.53;;;5.80;;
813;SDS011;389;48.710;9.392;2022-09-20T20:59:54;9.40;;;5.37;;
813;SDS011;389;48.710;9.392;2022-09-20T21:02:20;7.50;;;5.13;;
813;SDS011;389;48.710;9.392;2022-09-20T21:04:46;8.73;;;4.80;;
813;SDS011;389;48.710;9.392;2022-09-20T21:07:12;6.40;;;4.40;;
813;SDS011;389;48.710;9.392;2022-09-20T21:09:37;6.57;;;4.30;;
813;SDS011;389;48.710;9.392;2022-09-20T21:12:03;5.80;;;3.73;;
813;SDS011;389;48.710;9.392;2022-09-20T21:14:29;6.57;;;4.67;;
813;SDS011;389;48.710;9.392;2022-09-20T21:16:57;9.37;;;5.30;;
813;SDS011;389;48.710;9.392;2022-09-20T21:19:23;7.93;;;5.07;;
813;SDS011;389;48.710;9.392;2022-09-20T21:21:49;8.60;;;5.00;;
813;SDS011;389;48.710;9.392;2022-09-20T21:24:15;8.13;;;4.97;;
813;SDS011;389;48.710;9.392;2022-09-20T21:26:43;6.10;;;4.43;;
813;SDS011;389;48.710;9.392;2022-09-20T21:29:13;6.47;;;4.80;;
813;SDS011;389;48.710;9.392;2022-09-20T21:31:41;10.20;;;4.70;;
813;SDS011;389;48.710;9.392;2022-09-20T21:34:08;7.90;;;4.93;;
813;SDS011;389;48.710;9.392;2022-09-20T21:36:35;7.70;;;5.27;;
813;SDS011;389;48.710;9.392;2022-09-20T21:39:02;7.63;;;4.40;;
813;SDS011;389;48.710;9.392;2022-09-20T21:41:29;6.67;;;4.70;;
813;SDS011;389;48.710;9.392;2022-09-20T21:44:00;5.87;;;4.30;;